Time;durP1;ratioP1;P1;durP2;ratioP2;P2;SDS_P1;SDS_P2;PMS_P1;PMS_P2;Temp;Humidity;BMP_temperature;BMP_pressure;BME280_temperature;BME280_humidity;BME280_pressure;Samples;Min_cycle;Max_cycle;Signal;HPM_P1;HPM_P2
2023/08/15 00:02:14;;;;;;;5.05;3.20;;;;;;;-142.57;72.73;115900.28;5002833;28;20026;-85
2023/08/15 00:04:40;;;;;;;6.70;4.00;;;;;;;-142.57;73.88;115900.28;5021054;28;20022;-84
2023/08/15 00:07:05;;;;;;;7.35;3.80;;;;;;;-142.57;74.61;115900.28;5018127;28;20068;-84
2023/08/15 00:09:32;;;;;;;6.47;4.15;;;;;;;-142.57;74.94;115900.28;5015911;28;20045;-83
2023/08/15 00:11:58;;;;;;;8.85;4.28;;;;;;;-142.57;75.16;115900.28;5009899;28;20050;-83
2023/08/15 00:14:24;;;;;;;5.35;3.80;;;;;;;-142.57;75.31;115900.28;4984947;28;20022;-84
2023/08/15 00:16:50;;;;;;;10.05;4.18;;;;;;;-142.57;75.80;115900.28;5005588;28;20042;-85
2023/08/15 00:19:15;;;;;;;9.13;4.60;;;;;;;-142.57;76.20;115900.28;5010178;28;20117;-83
2023/08/15 00:21:55;;;;;;;6.72;4.22;;;;;;;-142.57;76.77;115900.28;5024094;28;20056;-84
2023/08/15 00:24:39;;;;;;;8.07;3.92;;;;;;;-142.57;76.75;115900.28;5024564;28;20024;-84
2023/08/15 00:27:05;;;;;;;9.52;4.18;;;;;;;-142.57;76.12;115900.28;5015473;28;20026;-84
2023/08/15 00:29:30;;;;;;;10.60;4.43;;;;;;;-142.57;76.13;115900.28;5024002;28;20484;-87
2023/08/15 00:31:56;;;;;;;6.35;3.67;;;;;;;-142.57;76.34;115900.28;5006584;28;20030;-82
2023/08/15 00:34:44;;;;;;;13.40;3.92;;;;;;;-142.57;77.72;115900.28;4983058;28;20375;-84
2023/08/15 00:37:10;;;;;;;5.45;4.05;;;;;;;-142.57;78.26;115900.28;5030723;28;20108;-85
2023/08/15 00:39:35;;;;;;;7.50;4.05;;;;;;;-142.57;78.77;115900.28;5020161;28;20037;-85
2023/08/15 00:42:01;;;;;;;6.20;3.90;;;;;;;-142.57;79.04;115900.28;5020452;28;20014;-83
2023/08/15 00:44:27;;;;;;;11.25;3.88;;;;;;;-142.57;79.91;115900.28;5019079;28;20034;-85
2023/08/15 00:46:53;;;;;;;8.63;4.38;;;;;;;-142.57;80.35;115900.28;5028500;28;20493;-83
2023/08/15 00:49:21;;;;;;;12.45;4.53;;;;;;;-142.57;81.13;115900.28;5026267;28;20040;-85
2023/08/15 00:51:48;;;;;;;7.80;4.30;;;;;;;-142.57;81.26;115900.28;5024069;28;20064;-84
2023/08/15 00:54:14;;;;;;;6.40;4.50;;;;;;;-142.57;79.98;115900.28;5009962;28;20030;-84
2023/08/15 00:56:40;;;;;;;7.18;4.70;;;;;;;-142.57;80.48;115900.28;5024555;28;20087;-85
2023/08/15 00:59:06;;;;;;;8.90;4.40;;;;;;;-142.57;81.05;115900.28;5024587;28;20109;-84
2023/08/15 01:01:33;;;;;;;10.93;4.70;;;;;;;-142.57;81.10;115900.28;5022190;28;20045;-87
2023/08/15 01:03:59;;;;;;;10.82;4.82;;;;;;;-142.57;81.35;115900.28;5001773;28;20171;-85
2023/08/15 01:06:26;;;;;;;8.15;4.40;;;;;;;-142.57;81.67;115900.28;5019752;28;20093;-85
2023/08/15 01:08:52;;;;;;;11.38;4.72;;;;;;;-142.57;81.72;115900.28;5000820;28;20092;-85
2023/08/15 01:11:17;;;;;;;11.75;5.30;;;;;;;-142.57;82.43;115900.28;5016537;28;20037;-84
2023/08/15 01:13:59;;;;;;;10.30;5.07;;;;;;;-142.57;82.41;115900.28;4981447;28;20038;-85
2023/08/15 01:16:30;;;;;;;11.60;4.88;;;;;;;-142.57;81.45;115900.28;4980936;28;20170;-84
2023/08/15 01:19:28;;;;;;;7.00;4.80;;;;;;;-142.57;80.78;115900.28;4998348;28;20084;-84
2023/08/15 01:21:55;;;;;;;8.43;4.50;;;;;;;-142.57;81.24;115900.28;4994248;28;20050;-84
2023/08/15 01:27:43;;;;;;;14.15;4.53;;;;;;;-142.57;80.48;115900.28;5007415;28;20125;-84
2023/08/15 01:30:09;;;;;;;16.50;5.35;;;;;;;-142.57;82.00;115900.28;5011269;28;20084;-83
2023/08/15 01:33:07;;;;;;;9.90;5.30;;;;;;;-142.57;83.13;115900.28;5013593;28;20102;-84
2023/08/15 01:39:24;;;;;;;13.57;5.97;;;;;;;-142.57;84.72;115900.28;5020524;28;20037;-84
2023/08/15 01:41:52;;;;;;;12.18;5.88;;;;;;;-142.57;85.23;115900.28;5020586;28;20087;-85
2023/08/15 01:44:39;;;;;;;12.23;5.35;;;;;;;-142.57;84.24;115900.28;5031869;28;20038;-85
2023/08/15 01:47:05;;;;;;;10.48;5.80;;;;;;;-142.57;85.57;115900.28;5034454;28;20057;-84
2023/08/15 01:49:31;;;;;;;10.48;5.43;;;;;;;-142.57;85.73;115900.28;4999857;28;20034;-84
2023/08/15 01:51:57;;;;;;;13.40;5.85;;;;;;;-142.57;86.63;115900.28;5029123;28;20044;-85
2023/08/15 01:54:24;;;;;;;14.13;6.28;;;;;;;-142.57;86.45;115900.28;5021705;28;20053;-84
2023/08/15 01:56:50;;;;;;;7.55;5.07;;;;;;;-142.57;86.64;115900.28;5010433;28;20042;-84
2023/08/15 01:59:16;;;;;;;14.98;4.63;;;;;;;-142.57;86.51;115900.28;5000573;28;20038;-85
2023/08/15 02:01:41;;;;;;;10.95;4.68;;;;;;;-142.57;86.45;115900.28;5001451;28;20117;-84
2023/08/15 02:04:07;;;;;;;9.32;5.50;;;;;;;-142.57;87.04;115900.28;5019156;28;20048;-84
2023/08/15 02:06:34;;;;;;;11.90;5.15;;;;;;;-142.57;87.47;115900.28;5002457;28;20038;-85
2023/08/15 02:09:01;;;;;;;10.82;5.15;;;;;;;-142.57;88.02;115900.28;5002891;28;20041;-84
2023/08/15 02:11:30;;;;;;;8.57;5.05;;;;;;;-142.57;88.32;115900.28;4986078;28;20080;-85
2023/08/15 02:13:57;;;;;;;11.55;5.78;;;;;;;-142.57;87.47;115900.28;5002146;28;20033;-84
2023/08/15 02:16:24;;;;;;;10.88;6.15;;;;;;;-142.57;86.77;115900.28;5019549;28;20322;-84
2023/08/15 02:18:50;;;;;;;11.93;7.32;;;;;;;-142.57;88.00;115900.28;5001235;28;20066;-85
2023/08/15 02:21:15;;;;;;;12.13;6.93;;;;;;;-142.57;88.75;115900.28;5005997;28;20073;-83
2023/08/15 02:23:41;;;;;;;10.80;6.93;;;;;;;-142.57;89.51;115900.28;5012830;28;20030;-84
2023/08/15 02:26:07;;;;;;;9.02;7.03;;;;;;;-142.57;90.90;115900.28;5011135;28;20030;-83
2023/08/15 02:28:33;;;;;;;12.57;7.70;;;;;;;-142.57;91.02;115900.28;5038147;28;20050;-83
2023/08/15 02:30:58;;;;;;;12.80;7.47;;;;;;;-142.57;91.33;115900.28;5038268;28;20045;-82
2023/08/15 02:33:24;;;;;;;10.20;6.57;;;;;;;-142.57;91.24;115900.28;5021531;28;20037;-84
2023/08/15 02:35:51;;;;;;;18.50;6.10;;;;;;;-142.57;91.21;115900.28;5013699;28;20023;-83
2023/08/15 02:38:17;;;;;;;10.30;7.05;;;;;;;-142.57;92.54;115900.28;5018772;28;20026;-84
2023/08/15 02:40:43;;;;;;;17.38;8.15;;;;;;;-142.57;92.75;115900.28;5001958;28;20022;-83
2023/08/15 02:43:10;;;;;;;10.75;8.02;;;;;;;-142.57;92.80;115900.28;5001873;28;20065;-82
2023/08/15 02:45:36;;;;;;;12.85;9.18;;;;;;;-142.57;93.13;115900.28;5029423;28;20026;-82
2023/08/15 02:48:01;;;;;;;10.90;8.77;;;;;;;-142.57;93.01;115900.28;5017906;28;20044;-83
2023/08/15 02:50:28;;;;;;;14.40;9.63;;;;;;;-142.57;93.50;115900.28;5017697;28;20038;-82
2023/08/15 02:52:54;;;;;;;14.23;8.65;;;;;;;-142.57;93.32;115900.28;4996120;28;20046;-84
2023/08/15 02:55:20;;;;;;;14.18;9.82;;;;;;;-142.57;93.23;115900.28;5001479;28;20033;-84
2023/08/15 02:57:47;;;;;;;12.82;9.77;;;;;;;-142.57;92.71;115900.28;5015477;28;20073;-84
2023/08/15 03:00:13;;;;;;;20.05;9.10;;;;;;;-142.57;92.02;115900.28;5013326;28;20027;-83
2023/08/15 03:02:42;;;;;;;13.90;9.10;;;;;;;-142.57;90.85;115900.28;4996483;28;20030;-83
2023/08/15 03:05:08;;;;;;;14.95;10.13;;;;;;;-142.57;91.86;115900.28;5019640;28;20052;-82
2023/08/15 03:07:33;;;;;;;13.48;9.88;;;;;;;-142.57;92.28;115900.28;5011277;28;20037;-83
2023/08/15 03:09:59;;;;;;;13.63;9.90;;;;;;;-142.57;92.46;115900.28;5020890;28;20013;-85
2023/08/15 03:12:29;;;;;;;19.75;10.02;;;;;;;-142.57;93.69;115900.28;5020935;28;20022;-83
2023/08/15 03:14:59;;;;;;;23.23;9.65;;;;;;;-142.57;93.99;115900.28;5016545;28;20046;-83
2023/08/15 03:17:25;;;;;;;16.00;10.20;;;;;;;-142.57;94.97;115900.28;5019426;28;20038;-84
2023/08/15 03:19:53;;;;;;;15.27;10.20;;;;;;;-142.57;95.39;115900.28;5037700;28;20034;-85
2023/08/15 03:22:19;;;;;;;19.85;9.27;;;;;;;-142.57;94.49;115900.28;5038103;28;20044;-85
2023/08/15 03:24:45;;;;;;;16.60;8.30;;;;;;;-142.57;94.21;115900.28;5004784;28;20061;-83
2023/08/15 03:27:10;;;;;;;14.50;8.60;;;;;;;-142.57;94.44;115900.28;5000828;28;20069;-83
2023/08/15 03:29:36;;;;;;;15.85;7.63;;;;;;;-142.57;96.34;115900.28;5018326;28;20042;-84
2023/08/15 03:32:02;;;;;;;9.98;8.63;;;;;;;-142.57;97.43;115900.28;5001143;28;20038;-83
2023/08/15 03:34:32;;;;;;;10.98;9.10;;;;;;;-142.57;97.86;115900.28;5000428;28;20014;-82
2023/08/15 03:36:58;;;;;;;15.32;8.63;;;;;;;-142.57;97.43;115900.28;5021385;28;20041;-83
2023/08/15 03:39:23;;;;;;;13.07;8.45;;;;;;;-142.57;98.06;115900.28;4994839;28;20110;-84
2023/08/15 03:41:49;;;;;;;19.05;8.57;;;;;;;-142.57;98.55;115900.28;4998198;28;20090;-84
2023/08/15 03:44:17;;;;;;;13.35;8.70;;;;;;;-142.57;98.35;115900.28;5000779;28;20086;-84
2023/08/15 03:46:44;;;;;;;11.43;8.48;;;;;;;-142.57;98.71;115900.28;5001036;28;20038;-83
2023/08/15 03:49:10;;;;;;;12.80;8.25;;;;;;;-142.57;99.27;115900.28;5029310;28;20040;-84
2023/08/15 03:51:35;;;;;;;13.93;8.77;;;;;;;-142.57;99.81;115900.28;5037909;28;20026;-84
2023/08/15 03:54:01;;;;;;;9.20;7.20;;;;;;;-142.57;99.97;115900.28;5020531;28;20029;-84
2023/08/15 03:56:27;;;;;;;13.15;7.60;;;;;;;-142.57;100.00;115900.28;5003957;28;20034;-85
2023/08/15 03:58:52;;;;;;;10.52;6.95;;;;;;;-142.57;100.00;115900.28;5027299;28;20021;-85
2023/08/15 04:01:18;;;;;;;10.48;6.57;;;;;;;-142.57;100.00;115900.28;4997728;28;20018;-85
2023/08/15 04:03:44;;;;;;;9.45;6.30;;;;;;;-142.57;100.00;115900.28;4984943;28;20047;-85
2023/08/15 04:06:09;;;;;;;9.30;5.55;;;;;;;-142.57;100.00;115900.28;4982613;28;20481;-84
2023/08/15 04:08:35;;;;;;;8.85;5.20;;;;;;;-142.57;100.00;115900.28;4989639;28;20035;-84
2023/08/15 04:11:00;;;;;;;7.47;5.00;;;;;;;-142.57;100.00;115900.28;5009527;28;20066;-83
2023/08/15 04:13:26;;;;;;;8.23;5.30;;;;;;;-142.57;100.00;115900.28;5014307;28;20034;-83
2023/08/15 04:15:51;;;;;;;8.52;5.28;;;;;;;-142.57;100.00;115900.28;5013233;28;20030;-83
2023/08/15 04:18:18;;;;;;;8.55;5.45;;;;;;;-142.57;100.00;115900.28;5013505;28;20029;-82
2023/08/15 04:20:43;;;;;;;7.20;4.85;;;;;;;-142.57;100.00;115900.28;5027218;28;20037;-83
2023/08/15 04:23:10;;;;;;;10.52;5.57;;;;;;;-142.57;100.00;115900.28;5032713;28;20040;-84
2023/08/15 04:25:37;;;;;;;6.75;4.93;;;;;;;-142.57;100.00;115900.28;5029831;28;20042;-83
2023/08/15 04:28:04;;;;;;;7.68;4.60;;;;;;;-142.57;100.00;115900.28;5007989;28;20497;-83
2023/08/15 04:30:31;;;;;;;8.40;5.43;;;;;;;-142.57;100.00;115900.28;5002839;28;20101;-82
2023/08/15 04:32:58;;;;;;;8.52;5.03;;;;;;;-142.57;100.00;115900.28;4999283;28;20045;-84
2023/08/15 04:35:27;;;;;;;7.32;5.07;;;;;;;-142.57;100.00;115900.28;4997119;28;20035;-85
2023/08/15 04:37:54;;;;;;;7.85;5.32;;;;;;;-142.57;100.00;115900.28;5015038;28;20030;-84
2023/08/15 04:40:31;;;;;;;10.77;4.90;;;;;;;-142.57;100.00;115900.28;4999466;28;20053;-83
2023/08/15 04:42:57;;;;;;;8.65;5.32;;;;;;;-142.57;100.00;115900.28;5016401;28;20045;-83
2023/08/15 04:49:10;;;;;;;10.68;4.97;;;;;;;-142.57;100.00;115900.28;5041211;28;20060;-84
2023/08/15 04:51:36;;;;;;;7.72;5.15;;;;;;;-142.57;100.00;115900.28;5035691;28;20046;-82
2023/08/15 04:54:01;;;;;;;7.60;5.10;;;;;;;-142.57;100.00;115900.28;5040487;28;20033;-84
2023/08/15 04:56:27;;;;;;;14.02;5.10;;;;;;;-142.57;100.00;115900.28;5019289;28;20046;-83
2023/08/15 04:58:52;;;;;;;9.93;5.07;;;;;;;-142.57;100.00;115900.28;5015717;28;20044;-83
2023/08/15 05:01:19;;;;;;;8.10;5.28;;;;;;;-142.57;100.00;115900.28;5020252;28;20030;-85
2023/08/15 05:03:45;;;;;;;9.40;4.80;;;;;;;-142.57;100.00;115900.28;5021457;28;20041;-82
2023/08/15 05:06:10;;;;;;;8.98;5.22;;;;;;;-142.57;99.96;115900.28;5003094;28;20101;-84
2023/08/15 05:08:36;;;;;;;6.80;5.10;;;;;;;-142.57;98.45;115900.28;5020648;28;20022;-83
2023/08/15 05:11:02;;;;;;;8.48;5.13;;;;;;;-142.57;98.18;115900.28;5020585;28;20029;-85
2023/08/15 05:13:27;;;;;;;10.65;5.80;;;;;;;-142.57;96.47;115900.28;5027719;28;20034;-84
2023/08/15 05:15:53;;;;;;;8.02;5.20;;;;;;;-142.57;95.78;115900.28;4999085;28;20061;-82
2023/08/15 05:18:20;;;;;;;7.85;5.03;;;;;;;-142.57;93.12;115900.28;5006999;28;20029;-85
2023/08/15 05:20:47;;;;;;;7.93;5.30;;;;;;;-142.57;92.80;115900.28;5036293;28;20033;-84
2023/08/15 05:23:14;;;;;;;5.72;4.65;;;;;;;-142.57;90.67;115900.28;5015532;28;20090;-84
2023/08/15 05:25:41;;;;;;;8.30;4.47;;;;;;;-142.57;88.13;115900.28;4997427;28;20063;-83
2023/08/15 05:28:07;;;;;;;8.45;5.18;;;;;;;-142.57;87.46;115900.28;5015245;28;20026;-84
2023/08/15 05:30:33;;;;;;;7.47;5.10;;;;;;;-142.57;87.79;115900.28;5033692;28;20057;-83
2023/08/15 05:33:00;;;;;;;8.25;5.53;;;;;;;-142.57;85.68;115900.28;5015458;28;20088;-83
2023/08/15 05:35:26;;;;;;;7.43;5.82;;;;;;;-142.57;83.65;115900.28;5030742;28;20038;-84
2023/08/15 05:37:51;;;;;;;7.78;5.85;;;;;;;-142.57;81.65;115900.28;5012930;28;20038;-84
2023/08/15 05:40:17;;;;;;;11.93;6.93;;;;;;;-142.57;80.16;115900.28;5012769;28;20042;-83
2023/08/15 05:42:43;;;;;;;11.93;6.40;;;;;;;-142.57;78.98;115900.28;4995257;28;20121;-86
2023/08/15 05:45:09;;;;;;;12.25;6.18;;;;;;;-142.57;78.20;115900.28;5012616;28;20041;-84
2023/08/15 05:47:35;;;;;;;12.75;6.63;;;;;;;-142.57;77.49;115900.28;5014468;28;20085;-85
2023/08/15 05:50:01;;;;;;;11.40;6.65;;;;;;;-142.57;75.25;115900.28;5013898;28;20088;-83
2023/08/15 05:52:27;;;;;;;10.95;6.47;;;;;;;-142.57;72.36;115900.28;4995334;28;20078;-83
2023/08/15 05:54:53;;;;;;;15.20;6.43;;;;;;;-142.57;71.15;115900.28;5012667;28;20041;-84
2023/08/15 05:57:19;;;;;;;11.93;5.85;;;;;;;-142.57;67.71;115900.28;5012753;28;20034;-83
2023/08/15 05:59:48;;;;;;;13.10;6.05;;;;;;;-142.57;66.83;115900.28;5021894;28;20038;-85
2023/08/15 06:02:14;;;;;;;10.75;5.68;;;;;;;-142.57;66.25;115900.28;5011832;28;20061;-82
2023/08/15 06:04:39;;;;;;;7.90;5.55;;;;;;;-142.57;61.95;115900.28;5008950;28;20030;-87
2023/08/15 06:07:05;;;;;;;7.35;6.03;;;;;;;-142.57;61.59;115900.28;4984224;28;20037;-86
2023/08/15 06:09:31;;;;;;;10.82;5.68;;;;;;;-142.57;63.44;115900.28;5015138;28;20066;-86
2023/08/15 06:11:56;;;;;;;8.20;4.70;;;;;;;-142.57;59.33;115900.28;5009235;28;20077;-85
2023/08/15 06:14:22;;;;;;;8.80;5.88;;;;;;;-142.57;58.14;115900.28;5014910;28;20026;-84
2023/08/15 06:16:48;;;;;;;10.43;5.43;;;;;;;-142.57;56.14;115900.28;4995828;28;20494;-84
2023/08/15 06:19:14;;;;;;;7.38;5.40;;;;;;;-142.57;58.15;115900.28;4995670;28;20038;-84
2023/08/15 06:21:42;;;;;;;10.32;6.00;;;;;;;-142.57;57.87;115900.28;5013589;28;20038;-84
2023/08/15 06:24:12;;;;;;;9.60;6.05;;;;;;;-142.57;57.46;115900.28;5006837;28;20173;-85
2023/08/15 06:26:38;;;;;;;12.50;5.65;;;;;;;-142.57;58.45;115900.28;4978109;28;20046;-85
2023/08/15 06:29:06;;;;;;;9.38;6.00;;;;;;;-142.57;58.51;115900.28;4995916;28;20037;-85
2023/08/15 06:31:33;;;;;;;8.23;5.32;;;;;;;-142.57;56.91;115900.28;4996283;28;20110;-85
2023/08/15 06:34:00;;;;;;;12.18;5.40;;;;;;;-142.57;58.32;115900.28;4979008;28;20068;-87
2023/08/15 06:36:26;;;;;;;11.43;5.95;;;;;;;-142.57;56.79;115900.28;4995330;28;20054;-85
2023/08/15 06:38:52;;;;;;;8.57;4.93;;;;;;;-142.57;55.82;115900.28;4997566;28;20114;-84
2023/08/15 06:41:18;;;;;;;8.48;4.60;;;;;;;-142.57;58.41;115900.28;4978149;28;20057;-86
2023/08/15 06:43:46;;;;;;;12.05;5.20;;;;;;;-142.57;56.80;115900.28;4995258;28;20147;-85
2023/08/15 06:46:13;;;;;;;7.07;4.45;;;;;;;-142.57;56.90;115900.28;4996328;28;20033;-84
2023/08/15 06:48:39;;;;;;;7.85;4.10;;;;;;;-142.57;56.71;115900.28;4994714;28;20462;-85
2023/08/15 06:51:04;;;;;;;10.20;5.32;;;;;;;-142.57;55.88;115900.28;5005885;28;20034;-83
2023/08/15 06:53:31;;;;;;;6.57;4.55;;;;;;;-142.57;56.56;115900.28;4985109;28;20041;-88
2023/08/15 06:55:57;;;;;;;11.00;4.90;;;;;;;-142.57;54.53;115900.28;4985686;28;20374;-82
2023/08/15 06:58:22;;;;;;;9.02;5.40;;;;;;;-142.57;53.86;115900.28;4996416;28;20104;-82
2023/08/15 07:00:48;;;;;;;12.77;5.45;;;;;;;-142.57;54.38;115900.28;4998632;28;20038;-82
2023/08/15 07:03:15;;;;;;;11.52;5.95;;;;;;;-142.57;53.62;115900.28;4988930;28;20089;-82
2023/08/15 07:05:41;;;;;;;8.10;5.63;;;;;;;-142.57;54.26;115900.28;5005726;28;20034;-83
2023/08/15 07:08:07;;;;;;;18.35;5.82;;;;;;;-142.57;54.95;115900.28;4978833;28;20386;-85
2023/08/15 07:10:34;;;;;;;12.38;5.68;;;;;;;-142.57;53.29;115900.28;5008677;28;20121;-83
2023/08/15 07:13:00;;;;;;;17.80;6.40;;;;;;;-142.57;53.88;115900.28;5001003;28;20623;-85
2023/08/15 07:15:26;;;;;;;14.32;5.88;;;;;;;-142.57;52.88;115900.28;4983764;28;20081;-85
2023/08/15 07:17:52;;;;;;;9.82;5.90;;;;;;;-142.57;52.88;115900.28;5007878;28;20098;-84
2023/08/15 07:20:19;;;;;;;14.85;5.28;;;;;;;-142.57;50.80;115900.28;5006717;28;20034;-90
2023/08/15 07:22:51;;;;;;;7.70;5.03;;;;;;;-142.57;50.06;115900.28;5001397;28;20059;-92
2023/08/15 07:25:17;;;;;;;12.43;4.60;;;;;;;-142.57;49.18;115900.28;5015348;28;20033;-93
2023/08/15 07:27:51;;;;;;;7.57;4.20;;;;;;;-142.57;47.31;115900.28;5031191;28;20029;-91
2023/08/15 07:30:23;;;;;;;12.00;5.05;;;;;;;-142.57;46.26;115900.28;4982189;28;20049;-92
2023/08/15 07:33:21;;;;;;;9.77;4.70;;;;;;;-142.57;47.04;115900.28;5034275;28;20041;-92
2023/08/15 07:35:49;;;;;;;9.18;4.82;;;;;;;-142.57;47.68;115900.28;4995783;28;20046;-93
2023/08/15 07:38:42;;;;;;;10.85;4.95;;;;;;;-142.57;46.90;115900.28;5011618;28;20501;-93
2023/08/15 07:41:09;;;;;;;14.73;5.03;;;;;;;-142.57;47.36;115900.28;5011793;28;20073;-91
2023/08/15 07:43:35;;;;;;;12.68;6.15;;;;;;;-142.57;44.90;115900.28;5012821;28;20065;-91
2023/08/15 07:46:02;;;;;;;14.30;6.10;;;;;;;-142.57;45.12;115900.28;5004331;28;20033;-92
2023/08/15 07:48:29;;;;;;;11.05;6.10;;;;;;;-142.57;46.94;115900.28;5004765;28;20038;-93
2023/08/15 07:51:01;;;;;;;10.38;5.13;;;;;;;-142.57;44.14;115900.28;5010420;28;20045;-94
2023/08/15 07:53:30;;;;;;;11.00;6.00;;;;;;;-142.57;44.48;115900.28;5019006;28;20018;-92
2023/08/15 07:55:58;;;;;;;12.07;6.93;;;;;;;-142.57;45.30;115900.28;5020667;28;20038;-92
2023/08/15 07:58:24;;;;;;;12.05;6.70;;;;;;;-142.57;44.69;115900.28;5004158;28;20026;-91
2023/08/15 08:03:32;;;;;;;;;;;;;;;-142.57;43.81;115900.28;5141580;22;20057;-91
2023/08/15 08:05:59;;;;;;;13.95;6.68;;;;;;;-142.57;41.54;115900.28;5000777;28;19921;-90
2023/08/15 08:08:24;;;;;;;8.20;5.45;;;;;;;-142.57;42.95;115900.28;5016041;28;20073;-90
2023/08/15 08:10:50;;;;;;;11.52;6.35;;;;;;;-142.57;42.55;115900.28;5029004;28;20029;-91
2023/08/15 08:13:16;;;;;;;15.57;6.53;;;;;;;-142.57;41.65;115900.28;5035239;28;20042;-90
2023/08/15 08:15:42;;;;;;;9.00;5.82;;;;;;;-142.57;42.12;115900.28;5034058;28;20038;-88
2023/08/15 08:18:08;;;;;;;15.07;6.22;;;;;;;-142.57;42.73;115900.28;5033953;28;20163;-88
2023/08/15 08:20:34;;;;;;;7.57;6.25;;;;;;;-142.57;43.42;115900.28;5036435;28;20061;-88
2023/08/15 08:23:02;;;;;;;13.10;5.75;;;;;;;-142.57;42.53;115900.28;5046615;28;20026;-89
2023/08/15 08:25:28;;;;;;;13.80;6.75;;;;;;;-142.57;40.91;115900.28;5055988;28;20040;-88
2023/08/15 08:27:54;;;;;;;8.98;7.03;;;;;;;-142.57;40.84;115900.28;5056234;28;20025;-87
2023/08/15 08:30:21;;;;;;;15.10;6.93;;;;;;;-142.57;39.13;115900.28;5056872;28;20041;-91
2023/08/15 08:32:47;;;;;;;11.32;7.15;;;;;;;-142.57;38.90;115900.28;5047109;28;20136;-88
2023/08/15 08:35:16;;;;;;;11.05;5.60;;;;;;;-142.57;39.05;115900.28;5040825;28;20060;-90
2023/08/15 08:37:43;;;;;;;14.63;7.25;;;;;;;-142.57;39.03;115900.28;5037472;28;20432;-91
2023/08/15 08:40:10;;;;;;;13.75;6.88;;;;;;;-142.57;38.45;115900.28;5037028;28;20038;-89
2023/08/15 08:42:36;;;;;;;12.13;6.18;;;;;;;-142.57;38.08;115900.28;5037920;28;20547;-90
2023/08/15 08:45:02;;;;;;;13.02;6.53;;;;;;;-142.57;38.28;115900.28;5038068;28;20065;-89
2023/08/15 08:47:30;;;;;;;12.35;4.70;;;;;;;-142.57;37.08;115900.28;5036479;28;20120;-88
2023/08/15 08:49:58;;;;;;;10.68;6.65;;;;;;;-142.57;36.92;115900.28;5044684;28;20043;-89
2023/08/15 08:52:24;;;;;;;12.75;4.70;;;;;;;-142.57;37.58;115900.28;5041586;28;20037;-89
2023/08/15 08:54:50;;;;;;;13.63;6.95;;;;;;;-142.57;37.29;115900.28;5037303;28;20068;-91
2023/08/15 08:57:18;;;;;;;14.52;6.75;;;;;;;-142.57;37.04;115900.28;5037384;28;20037;-89
2023/08/15 08:59:53;;;;;;;6.63;4.75;;;;;;;-142.57;36.30;115900.28;5036026;28;20029;-90
2023/08/15 09:02:21;;;;;;;13.40;6.25;;;;;;;-142.57;36.64;115900.28;5037419;28;20038;-91
2023/08/15 09:04:47;;;;;;;8.25;4.72;;;;;;;-142.57;36.35;115900.28;5037883;28;20056;-90
2023/08/15 09:07:15;;;;;;;11.30;5.32;;;;;;;-142.57;36.92;115900.28;5037145;28;20064;-91
2023/08/15 09:09:40;;;;;;;15.60;6.35;;;;;;;-142.57;36.72;115900.28;5036536;28;20408;-91
2023/08/15 09:12:06;;;;;;;12.35;5.90;;;;;;;-142.57;36.19;115900.28;5037190;28;20029;-89
2023/08/15 09:14:32;;;;;;;6.90;4.53;;;;;;;-142.57;34.69;115900.28;5036784;28;20028;-90
2023/08/15 09:16:57;;;;;;;8.77;5.30;;;;;;;-142.57;35.36;115900.28;5037875;28;20462;-91
2023/08/15 09:19:24;;;;;;;10.60;5.13;;;;;;;-142.57;34.47;115900.28;5036219;28;20029;-90
2023/08/15 09:21:50;;;;;;;8.93;5.93;;;;;;;-142.57;35.39;115900.28;5036123;28;20029;-89
2023/08/15 09:24:15;;;;;;;10.27;5.20;;;;;;;-142.57;35.52;115900.28;5036734;28;20036;-87
2023/08/15 09:26:41;;;;;;;8.40;4.57;;;;;;;-142.57;35.15;115900.28;5036077;28;20037;-88
2023/08/15 09:29:06;;;;;;;6.13;4.10;;;;;;;-142.57;34.66;115900.28;5036825;28;20025;-91
2023/08/15 09:31:38;;;;;;;7.80;4.38;;;;;;;-142.57;34.97;115900.28;5035533;28;20056;-90
2023/08/15 09:34:09;;;;;;;6.65;4.53;;;;;;;-142.57;34.71;115900.28;5019349;28;20088;-90
2023/08/15 09:36:35;;;;;;;18.23;4.53;;;;;;;-142.57;34.38;115900.28;5018836;28;20050;-89
2023/08/15 09:39:06;;;;;;;9.20;4.80;;;;;;;-142.57;34.99;115900.28;5041598;28;20052;-87
2023/08/15 09:41:32;;;;;;;13.52;4.60;;;;;;;-142.57;35.22;115900.28;5039924;28;20514;-88
2023/08/15 09:43:57;;;;;;;20.30;5.20;;;;;;;-142.57;35.07;115900.28;5037990;28;20033;-89
2023/08/15 09:46:24;;;;;;;13.82;4.75;;;;;;;-142.57;35.67;115900.28;5035072;28;20041;-89
2023/08/15 09:48:51;;;;;;;11.45;4.68;;;;;;;-142.57;34.85;115900.28;5036420;28;20025;-90
2023/08/15 09:51:17;;;;;;;9.98;4.00;;;;;;;-142.57;35.32;115900.28;5036549;28;20041;-89
2023/08/15 09:53:44;;;;;;;6.57;3.50;;;;;;;-142.57;34.64;115900.28;5020246;28;20037;-89
2023/08/15 09:56:17;;;;;;;9.48;3.85;;;;;;;-142.57;34.85;115900.28;5017250;28;20044;-89
2023/08/15 09:58:43;;;;;;;16.58;4.32;;;;;;;-142.57;34.85;115900.28;5018593;28;20039;-90
2023/08/15 10:01:10;;;;;;;10.68;6.68;;;;;;;-142.57;34.06;115900.28;5018643;28;20044;-91
2023/08/15 10:03:38;;;;;;;9.68;5.35;;;;;;;-142.57;34.65;115900.28;5019227;28;20037;-91
2023/08/15 10:06:07;;;;;;;11.18;5.43;;;;;;;-142.57;35.80;115900.28;5001451;28;20034;-91
2023/08/15 10:08:40;;;;;;;10.35;6.65;;;;;;;-142.57;34.81;115900.28;5021367;28;20053;-89
2023/08/15 10:11:10;;;;;;;6.63;4.15;;;;;;;-142.57;34.17;115900.28;5019651;28;20109;-93
2023/08/15 10:13:37;;;;;;;12.55;4.43;;;;;;;-142.57;34.60;115900.28;5019534;28;20050;-88
2023/08/15 10:16:13;;;;;;;13.98;6.25;;;;;;;-142.57;34.18;115900.28;5017457;28;20033;-88
2023/08/15 10:18:57;;;;;;;16.60;6.85;;;;;;;-142.57;34.55;115900.28;5017784;28;20044;-88
2023/08/15 10:21:27;;;;;;;12.40;4.80;;;;;;;-142.57;33.89;115900.28;5022594;28;20042;-89
2023/08/15 10:24:08;;;;;;;10.02;4.38;;;;;;;-142.57;34.11;115900.28;5030258;28;20030;-89
2023/08/15 10:26:33;;;;;;;8.10;3.95;;;;;;;-142.57;33.87;115900.28;5016405;28;20635;-86
2023/08/15 10:29:34;;;;;;;8.95;3.67;;;;;;;-142.57;33.31;115900.28;5036718;28;20018;-86
2023/08/15 10:32:00;;;;;;;8.13;3.45;;;;;;;-142.57;31.89;115900.28;5033137;28;20038;-86
2023/08/15 10:37:38;;;;;;;8.90;4.05;;;;;;;-142.57;31.06;115900.28;5028932;28;20061;-87
2023/08/15 10:40:13;;;;;;;10.30;3.50;;;;;;;-142.57;31.55;115900.28;5021025;28;20116;-85
2023/08/15 10:43:02;;;;;;;12.70;4.05;;;;;;;-142.57;31.11;115900.28;5020430;28;20077;-85
2023/08/15 10:45:35;;;;;;;9.10;3.47;;;;;;;-142.57;30.75;115900.28;5010090;28;20133;-86
2023/08/15 10:48:01;;;;;;;8.10;3.20;;;;;;;-142.57;30.30;115900.28;5019266;28;20408;-86
2023/08/15 10:50:26;;;;;;;8.63;3.30;;;;;;;-142.57;29.51;115900.28;5017867;28;20030;-85
2023/08/15 10:53:05;;;;;;;13.23;3.20;;;;;;;-142.57;29.59;115900.28;5019020;28;20065;-87
2023/08/15 10:55:34;;;;;;;8.05;3.30;;;;;;;-142.57;29.68;115900.28;5017912;28;20068;-90
2023/08/15 10:58:06;;;;;;;9.60;2.65;;;;;;;-142.57;30.08;115900.28;5016726;28;20038;-89
2023/08/15 11:00:36;;;;;;;9.07;3.40;;;;;;;-142.57;29.56;115900.28;5016455;28;20062;-87
2023/08/15 11:03:03;;;;;;;9.35;3.53;;;;;;;-142.57;29.72;115900.28;5015240;28;20393;-85
2023/08/15 11:05:32;;;;;;;11.13;3.05;;;;;;;-142.57;30.02;115900.28;5017735;28;20034;-85
2023/08/15 11:08:18;;;;;;;9.20;2.75;;;;;;;-142.57;30.13;115900.28;5015792;28;20117;-85
2023/08/15 11:10:49;;;;;;;7.22;2.70;;;;;;;-142.57;29.85;115900.28;5016540;28;20069;-87
2023/08/15 11:13:16;;;;;;;6.63;2.97;;;;;;;-142.57;29.57;115900.28;5014969;28;20042;-86
2023/08/15 11:15:46;;;;;;;6.85;3.17;;;;;;;-142.57;29.96;115900.28;5006206;28;20544;-86
2023/08/15 11:18:24;;;;;;;5.43;2.88;;;;;;;-142.57;29.68;115900.28;5036660;28;20085;-88
2023/08/15 11:21:12;;;;;;;7.50;2.65;;;;;;;-142.57;29.22;115900.28;5034857;28;20049;-87
2023/08/15 11:23:38;;;;;;;12.38;2.95;;;;;;;-142.57;29.03;115900.28;5014518;28;20038;-84
2023/08/15 11:26:13;;;;;;;4.50;2.55;;;;;;;-142.57;29.18;115900.28;5034007;28;20026;-83